createdAt,value
2022-10-17T00:01:14.447Z,100188.00
2022-10-17T00:03:43.220Z,100191.34
2022-10-17T00:06:13.034Z,100186.03
2022-10-17T00:08:45.246Z,100184.72
2022-10-17T00:11:18.365Z,100187.81
2022-10-17T00:13:46.804Z,100203.66
2022-10-17T00:16:15.582Z,100189.09
2022-10-17T00:18:43.872Z,100189.66
2022-10-17T00:21:17.473Z,100192.16
2022-10-17T00:23:45.615Z,100193.19
2022-10-17T00:26:15.917Z,100195.06
2022-10-17T00:28:44.315Z,100191.69
2022-10-17T00:31:13.057Z,100183.84
2022-10-17T00:33:41.524Z,100172.84
2022-10-17T00:36:12.827Z,100180.69
2022-10-17T00:38:42.372Z,100162.59
2022-10-17T00:41:12.667Z,100155.66
2022-10-17T00:43:57.830Z,100155.84
2022-10-17T00:46:28.628Z,100162.91
2022-10-17T00:48:58.602Z,100166.31
2022-10-17T00:51:32.266Z,100171.69
2022-10-17T00:54:02.163Z,100181.97
2022-10-17T00:56:31.937Z,100181.56
2022-10-17T00:59:02.327Z,100184.00
2022-10-17T01:01:30.673Z,100164.78
2022-10-17T01:03:59.802Z,100168.69
2022-10-17T01:06:28.644Z,100178.38
2022-10-17T01:08:57.481Z,100177.44
2022-10-17T01:11:36.675Z,100191.94
2022-10-17T01:14:10.328Z,100202.44
2022-10-17T01:16:49.109Z,100209.44
2022-10-17T01:19:45.803Z,100203.09
2022-10-17T01:22:22.898Z,100200.94
2022-10-17T01:25:05.555Z,100205.06
2022-10-17T01:27:39.101Z,100201.09
2022-10-17T01:30:42.618Z,100196.31
2022-10-17T01:33:14.626Z,100199.75
2022-10-17T01:35:49.529Z,100201.41
2022-10-17T01:38:24.839Z,100201.94
2022-10-17T01:41:02.205Z,100195.75
2022-10-17T01:43:36.278Z,100203.50
2022-10-17T01:46:14.691Z,100221.03
2022-10-17T01:48:47.309Z,100224.22
2022-10-17T01:51:20.558Z,100207.53
2022-10-17T01:53:56.194Z,100218.88
2022-10-17T01:56:28.117Z,100218.81
2022-10-17T01:59:02.410Z,100221.31
2022-10-17T02:01:36.114Z,100232.78
2022-10-17T02:04:06.859Z,100229.63
2022-10-17T02:06:36.495Z,100220.03
2022-10-17T02:09:18.541Z,100221.13
2022-10-17T02:11:57.078Z,100229.81
2022-10-17T02:14:37.617Z,100230.66
2022-10-17T02:17:15.221Z,100243.78
2022-10-17T02:19:56.454Z,100233.41
2022-10-17T02:22:36.277Z,100233.59
2022-10-17T02:25:12.183Z,100221.19
2022-10-17T02:27:49.453Z,100237.63
2022-10-17T02:30:28.198Z,100235.75
2022-10-17T02:33:02.009Z,100233.06
2022-10-17T02:35:34.350Z,100244.25
2022-10-17T02:38:07.248Z,100237.94
2022-10-17T02:40:37.441Z,100240.38
2022-10-17T02:43:06.182Z,100230.84
2022-10-17T02:45:39.106Z,100236.91
2022-10-17T02:48:13.827Z,100242.88
2022-10-17T02:50:50.132Z,100238.59
2022-10-17T02:53:27.730Z,100242.97
2022-10-17T02:56:00.294Z,100247.44
2022-10-17T02:58:34.006Z,100260.66
2022-10-17T03:01:03.568Z,100250.22
2022-10-17T03:03:34.247Z,100247.72
2022-10-17T03:06:03.756Z,100254.16
2022-10-17T03:08:31.986Z,100256.75
2022-10-17T03:11:01.570Z,100258.53
2022-10-17T03:13:33.019Z,100264.66
2022-10-17T03:16:03.424Z,100280.50
2022-10-17T03:18:33.082Z,100275.28
2022-10-17T03:21:03.076Z,100279.72
2022-10-17T03:23:31.400Z,100285.97
2022-10-17T03:26:05.466Z,100289.44
2022-10-17T03:28:35.812Z,100300.78
2022-10-17T03:31:08.959Z,100287.75
2022-10-17T03:33:39.620Z,100299.97
2022-10-17T03:36:10.371Z,100307.81
2022-10-17T03:38:39.938Z,100313.78
2022-10-17T03:41:10.102Z,100316.38
2022-10-17T03:43:39.947Z,100320.84
2022-10-17T03:46:09.552Z,100325.13
2022-10-17T03:48:40.049Z,100327.84
2022-10-17T03:51:10.892Z,100339.38
2022-10-17T03:53:47.451Z,100336.75
2022-10-17T03:56:17.592Z,100332.56
2022-10-17T03:58:49.415Z,100332.72
2022-10-17T04:01:19.751Z,100344.16
2022-10-17T04:03:52.009Z,100357.31
2022-10-17T04:06:21.346Z,100353.09
2022-10-17T04:08:51.062Z,100361.75
2022-10-17T04:11:26.291Z,100374.66
2022-10-17T04:13:59.782Z,100388.81
2022-10-17T04:16:29.612Z,100380.03
2022-10-17T04:19:05.658Z,100386.88
2022-10-17T04:21:40.824Z,100394.78
2022-10-17T04:24:12.169Z,100401.69
2022-10-17T04:26:58.873Z,100397.22
2022-10-17T04:29:30.241Z,100394.59
2022-10-17T04:32:06.873Z,100409.41
2022-10-17T04:34:43.506Z,100405.81
2022-10-17T04:37:12.355Z,100419.84
2022-10-17T04:39:40.575Z,100424.84
2022-10-17T04:42:09.598Z,100428.34
2022-10-17T04:44:38.367Z,100431.75
2022-10-17T04:47:06.651Z,100433.41
2022-10-17T04:49:34.910Z,100439.47
2022-10-17T04:52:12.625Z,100450.69
2022-10-17T04:54:44.080Z,100456.66
2022-10-17T04:57:14.610Z,100454.13
2022-10-17T04:59:48.322Z,100455.91
2022-10-17T05:02:29.492Z,100455.91
2022-10-17T05:04:58.506Z,100469.78
2022-10-17T05:07:28.399Z,100466.53
2022-10-17T05:10:01.990Z,100464.72
2022-10-17T05:12:31.463Z,100457.69
2022-10-17T05:15:00.432Z,100471.66
2022-10-17T05:17:30.258Z,100473.41
2022-10-17T05:19:58.558Z,100480.41
2022-10-17T05:22:28.880Z,100483.78
2022-10-17T05:24:58.540Z,100496.84
2022-10-17T05:27:27.003Z,100501.13
2022-10-17T05:29:55.961Z,100495.88
2022-10-17T05:32:30.964Z,100503.81
2022-10-17T05:34:59.688Z,100506.44
2022-10-17T05:37:30.831Z,100496.91
2022-10-17T05:39:59.292Z,100510.06
2022-10-17T05:42:27.927Z,100509.22
2022-10-17T05:44:58.540Z,100513.59
2022-10-17T05:47:28.223Z,100519.66
2022-10-17T05:49:58.096Z,100536.91
2022-10-17T05:52:37.244Z,100537.81
2022-10-17T05:55:12.364Z,100536.00
2022-10-17T05:57:41.149Z,100543.66
2022-10-17T06:00:15.291Z,100546.44
2022-10-17T06:02:46.449Z,100548.19
2022-10-17T06:05:16.801Z,100549.97
2022-10-17T06:07:46.815Z,100558.63
2022-10-17T06:10:16.682Z,100563.00
2022-10-17T06:12:45.054Z,100567.38
2022-10-17T06:15:13.870Z,100580.53
2022-10-17T06:17:46.132Z,100581.50
2022-10-17T06:20:15.283Z,100584.97
2022-10-17T06:22:43.337Z,100586.72
2022-10-17T06:25:18.641Z,100589.34
2022-10-17T06:27:47.025Z,100591.03
2022-10-17T06:30:15.255Z,100596.19
2022-10-17T06:32:43.408Z,100597.97
2022-10-17T06:35:12.161Z,100615.31
2022-10-17T06:37:41.606Z,100610.16
2022-10-17T06:40:12.381Z,100611.06
2022-10-17T06:42:42.818Z,100612.84
2022-10-17T06:45:39.376Z,100619.00
2022-10-17T06:48:18.430Z,100617.13
2022-10-17T06:51:07.615Z,100637.09
2022-10-17T06:53:45.935Z,100637.88
2022-10-17T06:56:32.853Z,100640.47
2022-10-17T06:59:29.952Z,100649.16
2022-10-17T07:02:06.807Z,100656.22
2022-10-17T07:04:35.221Z,100660.50
2022-10-17T07:07:03.525Z,100667.66
2022-10-17T07:09:34.135Z,100673.88
2022-10-17T07:12:02.308Z,100681.78
2022-10-17T07:14:32.960Z,100673.28
2022-10-17T07:17:01.711Z,100674.34
2022-10-17T07:19:32.657Z,100687.44
2022-10-17T07:22:00.850Z,100690.13
2022-10-17T07:24:29.357Z,100702.19
2022-10-17T07:27:17.041Z,100703.81
2022-10-17T07:29:46.652Z,100705.44
2022-10-17T07:32:32.584Z,100717.63
2022-10-17T07:35:00.892Z,100715.78
2022-10-17T07:37:29.167Z,100715.72
2022-10-17T07:39:58.065Z,100725.22
2022-10-17T07:42:28.557Z,100739.91
2022-10-17T07:44:58.753Z,100742.13
2022-10-17T07:47:31.529Z,100741.00
2022-10-17T07:50:00.947Z,100738.09
2022-10-17T07:52:29.211Z,100737.78
2022-10-17T07:54:57.648Z,100746.16
2022-10-17T07:57:26.345Z,100760.22
2022-10-17T07:59:55.293Z,100761.13
2022-10-17T08:02:26.653Z,100767.47
2022-10-17T08:04:55.517Z,100775.25
2022-10-17T08:07:28.345Z,100777.53
2022-10-17T08:09:57.574Z,100775.44
2022-10-17T08:12:26.055Z,100783.78
2022-10-17T08:14:54.968Z,100793.75
2022-10-17T08:17:24.786Z,100802.19
2022-10-17T08:19:52.890Z,100798.44
2022-10-17T08:22:21.104Z,100800.03
2022-10-17T08:24:49.387Z,100803.50
2022-10-17T08:27:24.015Z,100814.94
2022-10-17T08:29:53.640Z,100810.66
2022-10-17T08:32:23.701Z,100811.34
2022-10-17T08:34:53.823Z,100813.47
2022-10-17T08:37:22.238Z,100818.97
2022-10-17T08:39:50.454Z,100814.16
2022-10-17T08:42:36.912Z,100820.78
2022-10-17T08:45:18.067Z,100837.38
2022-10-17T08:47:48.789Z,100840.28
2022-10-17T08:50:26.874Z,100836.53
2022-10-17T08:53:00.675Z,100842.13
2022-10-17T08:55:33.873Z,100850.25
2022-10-17T08:58:02.877Z,100843.03
2022-10-17T09:00:33.596Z,100854.72
2022-10-17T09:03:20.693Z,100855.22
2022-10-17T09:05:57.866Z,100861.56
2022-10-17T09:08:40.203Z,100858.59
2022-10-17T09:11:13.967Z,100862.00
2022-10-17T09:13:56.818Z,100867.63
2022-10-17T09:16:43.513Z,100866.50
2022-10-17T09:19:18.206Z,100865.66
2022-10-17T09:21:53.349Z,100871.59
2022-10-17T09:24:26.924Z,100870.16
2022-10-17T09:26:56.767Z,100876.22
2022-10-17T09:29:31.012Z,100878.53
2022-10-17T09:32:11.167Z,100874.81
2022-10-17T09:34:39.681Z,100877.78
2022-10-17T09:37:14.594Z,100873.50
2022-10-17T09:39:44.085Z,100877.25
2022-10-17T09:42:17.619Z,100885.66
2022-10-17T09:44:52.439Z,100891.94
2022-10-17T09:47:30.159Z,100891.16
2022-10-17T09:49:58.761Z,100900.53
2022-10-17T09:52:34.588Z,100897.31
2022-10-17T09:55:06.314Z,100908.88
2022-10-17T09:57:55.642Z,100896.53
2022-10-17T10:00:26.319Z,100899.81
2022-10-17T10:03:11.162Z,100903.78
2022-10-17T10:05:39.318Z,100920.03
2022-10-17T10:08:16.341Z,100900.06
2022-10-17T10:10:45.286Z,100914.06
2022-10-17T10:13:21.986Z,100916.53
2022-10-17T10:15:51.755Z,100912.97
2022-10-17T10:18:37.262Z,100925.63
2022-10-17T10:21:09.633Z,100927.28
2022-10-17T10:23:41.263Z,100927.53
2022-10-17T10:26:22.321Z,100927.13
2022-10-17T10:28:57.375Z,100931.47
2022-10-17T10:31:38.073Z,100928.84
2022-10-17T10:34:18.756Z,100931.44
2022-10-17T10:36:52.124Z,100923.16
2022-10-17T10:39:43.089Z,100930.66
2022-10-17T10:42:22.416Z,100940.31
2022-10-17T10:44:51.818Z,100938.56
2022-10-17T10:47:24.725Z,100940.69
2022-10-17T10:50:08.014Z,100950.69
2022-10-17T10:52:42.902Z,100955.88
2022-10-17T10:55:25.175Z,100947.81
2022-10-17T10:57:56.619Z,100951.91
2022-10-17T11:00:29.011Z,100962.41
2022-10-17T11:03:10.600Z,100966.94
2022-10-17T11:05:47.017Z,100967.28
2022-10-17T11:08:24.008Z,100973.06
2022-10-17T11:11:08.323Z,100975.75
2022-10-17T11:13:44.059Z,100984.50
2022-10-17T11:16:24.767Z,100986.88
2022-10-17T11:18:58.604Z,100988.25
2022-10-17T11:21:38.352Z,100991.88
2022-10-17T11:24:16.296Z,100990.69
2022-10-17T11:26:51.754Z,100991.41
2022-10-17T11:29:20.294Z,101001.56
2022-10-17T11:31:53.945Z,100999.00
2022-10-17T11:34:26.437Z,101004.09
2022-10-17T11:36:57.931Z,101008.75
2022-10-17T11:39:34.550Z,101009.19
2022-10-17T11:42:08.323Z,101001.50
2022-10-17T11:44:38.326Z,100999.56
2022-10-17T11:47:15.871Z,101002.97
2022-10-17T11:49:51.650Z,101002.84
2022-10-17T11:52:54.934Z,101006.22
2022-10-17T11:55:23.363Z,101012.66
2022-10-17T11:58:08.928Z,101018.56
2022-10-17T12:00:49.880Z,101019.09
2022-10-17T12:03:37.742Z,101017.50
2022-10-17T12:06:14.445Z,101013.56
2022-10-17T12:08:50.986Z,101021.69
2022-10-17T12:11:35.142Z,101021.19
2022-10-17T12:14:06.220Z,101016.81
2022-10-17T12:16:46.839Z,101020.53
2022-10-17T12:19:34.205Z,101018.34
2022-10-17T12:22:08.356Z,101018.81
2022-10-17T12:24:41.447Z,101014.84
2022-10-17T12:27:52.281Z,101014.53
2022-10-17T12:30:27.409Z,101026.66
2022-10-17T12:33:08.436Z,101024.25
2022-10-17T12:35:38.735Z,101028.19
2022-10-17T12:38:28.243Z,101031.34
2022-10-17T12:40:59.426Z,101028.84
2022-10-17T12:43:52.825Z,101027.72
2022-10-17T12:46:45.625Z,101037.22
2022-10-17T12:49:42.627Z,101031.94
2022-10-17T12:52:23.806Z,101039.44
2022-10-17T12:55:17.044Z,101025.97
2022-10-17T12:57:53.204Z,101023.44
2022-10-17T13:00:25.160Z,101022.88
2022-10-17T13:02:56.835Z,101017.44
2022-10-17T13:05:29.801Z,101022.78
2022-10-17T13:08:00.935Z,101017.50
2022-10-17T13:10:31.842Z,101017.41
2022-10-17T13:13:13.036Z,101028.78
2022-10-17T13:15:41.197Z,101019.84
2022-10-17T13:18:21.143Z,101018.78
2022-10-17T13:21:01.623Z,101010.81
2022-10-17T13:23:33.709Z,101002.91
2022-10-17T13:26:07.563Z,101002.03
2022-10-17T13:28:39.391Z,101005.41
2022-10-17T13:31:08.363Z,101011.59
2022-10-17T13:33:40.450Z,101012.38
2022-10-17T13:36:10.165Z,101018.59
2022-10-17T13:38:41.723Z,101020.66
2022-10-17T13:44:08.778Z,101009.03
2022-10-17T13:46:39.149Z,101012.38
2022-10-17T13:49:17.947Z,101008.53
2022-10-17T13:51:47.867Z,101020.53
2022-10-17T13:54:21.950Z,101017.47
2022-10-17T13:56:57.645Z,101020.78
2022-10-17T13:59:29.119Z,101015.19
2022-10-17T14:01:57.860Z,101015.00
2022-10-17T14:04:27.444Z,101012.75
2022-10-17T14:06:56.040Z,101012.94
2022-10-17T14:09:26.875Z,101010.78
2022-10-17T14:12:01.913Z,101007.75
2022-10-17T14:14:41.639Z,101013.84
2022-10-17T14:17:24.967Z,101005.59
2022-10-17T14:20:16.151Z,101010.22
2022-10-17T14:22:50.661Z,101016.53
2022-10-17T14:25:35.524Z,101021.34
2022-10-17T14:28:15.365Z,101019.75
2022-10-17T14:31:01.913Z,101014.47
2022-10-17T14:33:33.869Z,101013.50
2022-10-17T14:36:05.614Z,101019.75
2022-10-17T14:38:36.051Z,101027.94
2022-10-17T14:41:37.755Z,101025.97
2022-10-17T14:44:01.901Z,101032.06
2022-10-17T14:46:30.610Z,101027.09
2022-10-17T14:49:04.587Z,101027.06
2022-10-17T14:51:44.754Z,101030.56
2022-10-17T14:54:27.037Z,101036.09
2022-10-17T14:56:56.154Z,101030.94
2022-10-17T14:59:52.286Z,101030.81
2022-10-17T15:02:15.031Z,101032.44
2022-10-17T15:04:43.486Z,101029.31
2022-10-17T15:07:15.338Z,101018.03
2022-10-17T15:09:44.124Z,101028.13
2022-10-17T15:12:16.653Z,101035.94
2022-10-17T15:14:45.363Z,101027.59
2022-10-17T15:17:15.919Z,101032.53
2022-10-17T15:19:44.593Z,101029.56
2022-10-17T15:22:16.327Z,101037.19
2022-10-17T15:24:46.235Z,101040.25
2022-10-17T15:27:18.843Z,101040.06
2022-10-17T15:29:48.253Z,101044.09
2022-10-17T15:32:16.940Z,101045.06
2022-10-17T15:34:45.625Z,101038.75
2022-10-17T15:37:22.422Z,101048.03
2022-10-17T15:39:54.599Z,101049.34
2022-10-17T15:42:24.357Z,101053.78
2022-10-17T15:44:52.628Z,101049.00
2022-10-17T15:47:26.094Z,101053.59
2022-10-17T15:49:56.845Z,101057.53
2022-10-17T15:52:27.830Z,101061.22
2022-10-17T15:54:59.531Z,101057.25
2022-10-17T15:57:33.136Z,101046.34
2022-10-17T16:00:01.702Z,101056.88
2022-10-17T16:02:30.077Z,101057.63
2022-10-17T16:04:58.658Z,101061.94
2022-10-17T16:07:28.794Z,101058.59
2022-10-17T16:09:57.175Z,101064.09
2022-10-17T16:12:31.208Z,101054.13
2022-10-17T16:14:59.533Z,101069.63
2022-10-17T16:17:27.807Z,101065.13
2022-10-17T16:19:56.337Z,101076.75
2022-10-17T16:22:32.433Z,101074.97
2022-10-17T16:25:07.948Z,101066.34
2022-10-17T16:27:36.681Z,101074.47
2022-10-17T16:30:06.720Z,101074.34
2022-10-17T16:32:35.550Z,101076.66
2022-10-17T16:35:03.687Z,101078.50
2022-10-17T16:37:33.189Z,101083.75
2022-10-17T16:40:01.356Z,101081.41
2022-10-17T16:42:29.805Z,101082.69
2022-10-17T16:44:58.054Z,101084.59
2022-10-17T16:47:26.237Z,101079.34
2022-10-17T16:49:55.008Z,101084.78
2022-10-17T16:52:23.799Z,101098.66
2022-10-17T16:54:53.886Z,101100.72
2022-10-17T16:57:22.570Z,101091.06
2022-10-17T16:59:50.772Z,101093.13
2022-10-17T17:02:21.237Z,101093.31
2022-10-17T17:04:49.780Z,101089.94
2022-10-17T17:07:19.822Z,101103.28
2022-10-17T17:09:49.024Z,101114.00
2022-10-17T17:12:19.882Z,101110.69
2022-10-17T17:14:48.112Z,101112.03
2022-10-17T17:17:30.248Z,101112.22
2022-10-17T17:20:06.093Z,101121.38
2022-10-17T17:22:34.504Z,101133.81
2022-10-17T17:25:02.611Z,101133.13
2022-10-17T17:27:33.986Z,101146.38
2022-10-17T17:30:02.246Z,101143.91
2022-10-17T17:32:33.498Z,101149.06
2022-10-17T17:35:02.269Z,101144.00
2022-10-17T17:37:30.616Z,101149.56
2022-10-17T17:39:59.009Z,101147.16
2022-10-17T17:42:27.262Z,101140.53
2022-10-17T17:44:56.896Z,101151.09
2022-10-17T17:47:25.361Z,101150.38
2022-10-17T17:49:53.543Z,101156.47
2022-10-17T17:52:21.799Z,101159.72
2022-10-17T17:54:49.996Z,101162.41
2022-10-17T17:57:18.264Z,101175.44
2022-10-17T17:59:48.596Z,101178.00
2022-10-17T18:02:19.294Z,101178.06
2022-10-17T18:04:48.040Z,101183.06
2022-10-17T18:07:16.269Z,101185.34
2022-10-17T18:09:44.765Z,101184.19
2022-10-17T18:12:13.005Z,101181.97
2022-10-17T18:14:41.494Z,101179.91
2022-10-17T18:17:09.991Z,101181.84
2022-10-17T18:19:40.271Z,101181.69
2022-10-17T18:22:09.565Z,101185.91
2022-10-17T18:24:37.801Z,101175.97
2022-10-17T18:27:06.657Z,101186.28
2022-10-17T18:29:34.868Z,101195.84
2022-10-17T18:32:03.133Z,101197.31
2022-10-17T18:34:31.639Z,101198.91
2022-10-17T18:37:02.614Z,101202.38
2022-10-17T18:39:31.496Z,101214.03
2022-10-17T18:42:00.121Z,101209.09
2022-10-17T18:44:29.232Z,101210.22
2022-10-17T18:47:02.938Z,101206.00
2022-10-17T18:49:33.038Z,101207.97
2022-10-17T18:52:02.860Z,101203.63
2022-10-17T18:54:33.498Z,101215.13
2022-10-17T18:57:02.282Z,101209.66
2022-10-17T18:59:30.809Z,101210.88
2022-10-17T19:02:00.428Z,101212.28
2022-10-17T19:04:28.862Z,101215.44
2022-10-17T19:06:57.039Z,101216.66
2022-10-17T19:09:27.458Z,101218.69
2022-10-17T19:11:56.618Z,101219.84
2022-10-17T19:14:26.356Z,101222.91
2022-10-17T19:16:54.754Z,101220.44
2022-10-17T19:19:24.421Z,101222.91
2022-10-17T19:21:53.375Z,101219.44
2022-10-17T19:24:23.895Z,101218.81
2022-10-17T19:26:55.919Z,101220.44
2022-10-17T19:29:26.109Z,101217.66
2022-10-17T19:34:24.346Z,101224.44
2022-10-17T19:36:53.614Z,101225.88
2022-10-17T19:39:23.455Z,101215.91
2022-10-17T19:41:53.665Z,101224.50
2022-10-17T19:44:22.152Z,101221.94
2022-10-17T19:46:50.322Z,101230.75
2022-10-17T19:49:18.684Z,101224.66
2022-10-17T19:51:47.385Z,101229.00
2022-10-17T19:54:18.313Z,101232.22
2022-10-17T19:56:46.753Z,101238.69
2022-10-17T19:59:17.573Z,101238.47
2022-10-17T20:01:46.710Z,101240.06
2022-10-17T20:04:15.581Z,101248.53
2022-10-17T20:06:44.548Z,101247.63
2022-10-17T20:09:16.834Z,101246.69
2022-10-17T20:11:46.556Z,101251.94
2022-10-17T20:14:16.145Z,101252.69
2022-10-17T20:16:50.121Z,101253.41
2022-10-17T20:19:18.311Z,101253.34
2022-10-17T20:21:47.328Z,101262.06
2022-10-17T20:24:18.832Z,101267.28
2022-10-17T20:26:47.718Z,101260.41
2022-10-17T20:29:19.676Z,101265.50
2022-10-17T20:31:49.549Z,101263.66
2022-10-17T20:34:19.443Z,101268.75
2022-10-17T20:36:49.877Z,101270.44
2022-10-17T20:39:19.924Z,101276.38
2022-10-17T20:41:48.506Z,101273.66
2022-10-17T20:44:18.682Z,101278.91
2022-10-17T20:47:01.225Z,101275.44
2022-10-17T20:49:31.759Z,101277.38
2022-10-17T20:52:00.693Z,101273.22
2022-10-17T20:54:29.782Z,101274.47
2022-10-17T20:57:01.198Z,101277.13
2022-10-17T20:59:36.178Z,101283.53
2022-10-17T21:02:04.921Z,101290.53
2022-10-17T21:04:45.959Z,101286.91
2022-10-17T21:07:16.944Z,101287.16
2022-10-17T21:09:46.370Z,101293.78
2022-10-17T21:12:21.754Z,101295.44
2022-10-17T21:15:01.046Z,101305.38
2022-10-17T21:17:29.542Z,101301.69
2022-10-17T21:19:57.721Z,101308.53
2022-10-17T21:22:26.752Z,101304.31
2022-10-17T21:24:55.236Z,101314.56
2022-10-17T21:27:23.695Z,101319.59
2022-10-17T21:29:52.222Z,101321.88
2022-10-17T21:32:39.464Z,101324.19
2022-10-17T21:35:10.827Z,101319.16
2022-10-17T21:37:39.327Z,101327.44
2022-10-17T21:40:09.058Z,101334.44
2022-10-17T21:42:37.504Z,101324.81
2022-10-17T21:45:15.377Z,101326.19
2022-10-17T21:48:11.294Z,101325.13
2022-10-17T21:50:33.825Z,101325.88
2022-10-17T21:53:02.265Z,101327.75
2022-10-17T21:55:30.712Z,101329.00
2022-10-17T21:57:58.864Z,101331.34
2022-10-17T22:00:27.446Z,101325.63
2022-10-17T22:02:57.017Z,101334.06
2022-10-17T22:05:25.250Z,101322.88
2022-10-17T22:07:53.716Z,101336.28
2022-10-17T22:10:21.940Z,101340.47
2022-10-17T22:12:50.894Z,101330.34
2022-10-17T22:15:19.184Z,101333.13
2022-10-17T22:17:47.749Z,101327.31
2022-10-17T22:20:17.591Z,101331.13
2022-10-17T22:22:45.753Z,101327.47
2022-10-17T22:25:14.523Z,101331.78
2022-10-17T22:27:42.859Z,101321.94
2022-10-17T22:30:13.190Z,101333.88
2022-10-17T22:32:43.387Z,101320.03
2022-10-17T22:35:11.757Z,101323.63
2022-10-17T22:37:41.608Z,101323.41
2022-10-17T22:40:10.121Z,101311.47
2022-10-17T22:42:38.315Z,101327.75
2022-10-17T22:45:07.192Z,101328.59
2022-10-17T22:47:35.466Z,101340.69
2022-10-17T22:50:04.201Z,101334.50
2022-10-17T22:52:33.638Z,101333.44
2022-10-17T22:55:04.647Z,101318.16
2022-10-17T22:57:33.327Z,101326.66
2022-10-17T23:00:01.994Z,101337.56
2022-10-17T23:02:30.800Z,101348.44
2022-10-17T23:04:59.259Z,101358.75
2022-10-17T23:07:27.840Z,101354.19
2022-10-17T23:09:56.386Z,101354.28
2022-10-17T23:12:26.288Z,101348.22
2022-10-17T23:14:55.413Z,101344.97
2022-10-17T23:17:23.584Z,101343.16
2022-10-17T23:19:54.222Z,101353.09
2022-10-17T23:22:25.515Z,101344.63
2022-10-17T23:24:53.724Z,101335.75
2022-10-17T23:27:22.504Z,101325.16
2022-10-17T23:29:52.705Z,101320.06
2022-10-17T23:32:22.002Z,101333.31
2022-10-17T23:34:50.512Z,101323.03
2022-10-17T23:37:19.359Z,101329.59
2022-10-17T23:39:47.898Z,101334.22
2022-10-17T23:42:16.083Z,101330.44
2022-10-17T23:44:44.621Z,101333.19
2022-10-17T23:47:14.696Z,101326.72
2022-10-17T23:49:43.186Z,101341.22
2022-10-17T23:52:11.942Z,101345.47
2022-10-17T23:57:13.449Z,101336.91
2022-10-17T23:59:41.592Z,101329.06
